• Join FlightAware (Why Join?)
  • Login
  • US Flag 
04:53AM EDT


 

Airport Tracker/Info


-or-


 

Live Flight TrackerFlight Track Log ✈ N589H ✈ 18/Apr/2014 ✈ KPIE - KAPF

Flight Track Log - Related Links

Times and Time Zones

All times are in EDT time to prevent confusion due to time zone crossing. See the N589H flight status page for this flight to view local times or setup timezone preferences in your user account.

Time Position Orientation Groundspeed Altitude Reporting Facility
EDT Latitude Longitude Course Direction KTS MPH feet Rate Location/Type
12:12PM 27.9000 -82.6833 180° South 120 138 700  Level Tampa TRACON
12:12PM 27.8833 -82.6833 180° South 129 148 1,000 2,160 Climbing Tampa TRACON
12:13PM 27.8500 -82.7000 204° Southwest 166 191 3,300 1,920 Climbing Tampa TRACON
12:16PM 27.7489 -82.6797 170° South 185 213 7,300 1,860 Climbing Miami Center
12:17PM 27.6933 -82.6581 173° South 197 227 9,300 1,860 Climbing Miami Center
12:18PM 27.6425 -82.6275 152° Southeast 209 241 11,100 1,740 Climbing Miami Center
12:19PM 27.5894 -82.5919 149° Southeast 214 246 12,800 900 Climbing Miami Center
12:20PM 27.5261 -82.5583 155° Southeast 230 265 13,000 60 Climbing Miami Center
12:21PM 27.4547 -82.5175 153° Southeast 265 305 13,000 -60 Level Miami Center
12:22PM 27.3833 -82.4742 152° Southeast 286 329 12,900  Descending Miami Center
12:23PM 27.3139 -82.4356 154° Southeast 286 329 13,000  Climbing Miami Center
12:24PM 27.2425 -82.3950 153° Southeast 286 329 13,000  Level Miami Center
12:25PM 27.1692 -82.3517 152° Southeast 297 342 13,100 -360 Climbing Miami Center
12:26PM 27.0975 -82.3111 153° Southeast 297 342 12,300 -900 Descending Miami Center
12:27PM 27.0261 -82.2681 152° Southeast 297 342 11,300 -720 Descending Miami Center
12:28PM 26.9547 -82.2253 152° Southeast 297 342 10,900 -960 Descending Miami Center
12:29PM 26.8853 -82.1825 151° Southeast 292 336 9,400 -1,500 Descending Miami Center
12:30PM 26.8178 -82.1444 153° Southeast 280 322 8,000 -1,500 Descending Miami Center
12:31PM 26.7442 -82.1017 153° Southeast 280 322 6,500 -1,320 Descending Miami Center
12:32PM 26.6808 -82.0639 152° Southeast 274 315 5,400 -780 Descending Miami Center
12:33PM 26.6194 -82.0264 151° Southeast 263 303 5,000 -240 Descending Miami Center
12:34PM 26.5581 -81.9911 153° Southeast 257 296 5,000 -420 Level Miami Center
12:35PM 26.4947 -81.9583 155° Southeast 257 296 4,200 -840 Descending Miami Center
12:37PM 26.3873 -81.8971 149° Southeast  Level FlightAware Approximate
12:44PM 26.1500 -81.7667 156° South  Level FlightAware Approximate
12:45PM 26.1524 -81.7756 90° East  Level Estimated
12:46PM 26.1524 -81.7756 156° South  Level Estimated
12:47PM 26.1524 -81.7756 107° East  Level Estimated
12:48PM 26.1524 -81.7756 156° South  Level Estimated
12:49PM 26.1524 -81.7756 107° East  Level Estimated